KPRX/PRX METAR and TAF weather

Enter ICAO airport designator
Station Type Date Time Source
KPRX METAR 2019/12/08 16:56 UTC NOAA

KPRX 081656Z AUTO 15014KT 10SM OVC009 11/09 A3002 RMK AO2 CIG 007V013 SLP184 T01110094


Station Type Date Time Source
KPRX Decoded METAR 2019/12/08 16:56 UTC NOAA

Paris / Cox Field, TX, United States (KPRX) 33-38N 095-27W
Dec 08, 2019 - 11:56 AM EST / 2019.12.08 1656 UTC
Wind: from the SSE (150 degrees) at 16 MPH (14 KT):0
Visibility: 10 mile(s):0
Sky conditions: overcast
Temperature: 52.0 F (11.1 C)
Dew Point: 48.9 F (9.4 C)
Relative Humidity: 89%
Pressure (altimeter): 30.02 in. Hg (1016 hPa)
ob: KPRX 081656Z AUTO 15014KT 10SM OVC009 11/09 A3002 RMK AO2 CIG 007V013 SLP184 T01110094
cycle: 17

Station Type Date Time Source
KPRX TAF UTC NOAA

Error!

Example: see airport list